createdAt,value
2018-07-10T00:03:16.318Z,3.93
2018-07-10T00:06:02.059Z,4.47
2018-07-10T00:08:46.598Z,3.50
2018-07-10T00:11:29.061Z,4.27
2018-07-10T00:14:03.346Z,3.97
2018-07-10T00:16:38.142Z,4.40
2018-07-10T00:19:13.053Z,4.00
2018-07-10T00:21:46.993Z,3.80
2018-07-10T00:24:21.445Z,4.00
2018-07-10T00:26:55.726Z,4.73
2018-07-10T00:29:30.136Z,3.80
2018-07-10T00:32:04.550Z,4.37
2018-07-10T00:34:38.902Z,3.90
2018-07-10T00:37:13.102Z,4.40
2018-07-10T00:39:47.304Z,4.70
2018-07-10T00:42:21.750Z,4.47
2018-07-10T00:44:56.366Z,4.27
2018-07-10T00:47:31.642Z,4.83
2018-07-10T00:50:06.939Z,4.87
2018-07-10T00:52:41.645Z,4.10
2018-07-10T00:55:17.036Z,4.50
2018-07-10T00:57:52.120Z,4.10
2018-07-10T01:00:30.330Z,4.30
2018-07-10T01:03:05.286Z,4.87
2018-07-10T01:05:39.749Z,4.30
2018-07-10T01:08:14.430Z,4.43
2018-07-10T01:10:55.817Z,4.53
2018-07-10T01:13:30.653Z,4.33
2018-07-10T01:16:06.441Z,4.50
2018-07-10T01:18:43.985Z,4.30
2018-07-10T01:21:21.036Z,4.77
2018-07-10T01:23:56.558Z,4.60
2018-07-10T01:26:36.170Z,4.27
2018-07-10T01:29:20.348Z,4.53
2018-07-10T01:31:54.810Z,4.40
2018-07-10T01:34:28.984Z,4.97
2018-07-10T01:37:04.399Z,4.23
2018-07-10T01:39:39.485Z,4.03
2018-07-10T01:42:13.863Z,4.57
2018-07-10T01:44:48.373Z,4.27
2018-07-10T01:47:23.503Z,4.80
2018-07-10T01:49:58.665Z,4.47
2018-07-10T01:52:33.478Z,4.90
2018-07-10T01:55:08.803Z,4.60
2018-07-10T01:57:43.102Z,4.90
2018-07-10T02:00:27.810Z,4.80
2018-07-10T02:03:02.398Z,4.53
2018-07-10T02:05:36.869Z,4.60
2018-07-10T02:08:11.278Z,4.07
2018-07-10T02:10:45.964Z,4.60
2018-07-10T02:13:20.202Z,4.67
2018-07-10T02:15:54.734Z,4.27
2018-07-10T02:18:29.297Z,5.30
2018-07-10T02:21:06.716Z,4.90
2018-07-10T02:23:43.632Z,4.70
2018-07-10T02:26:21.668Z,4.83
2018-07-10T02:28:56.982Z,4.83
2018-07-10T02:31:32.403Z,5.10
2018-07-10T02:34:06.929Z,4.80
2018-07-10T02:36:41.749Z,4.93
2018-07-10T02:39:16.908Z,5.10
2018-07-10T02:41:51.950Z,4.77
2018-07-10T02:44:26.350Z,4.60
2018-07-10T02:47:00.618Z,5.60
2018-07-10T02:49:34.898Z,4.23
2018-07-10T02:52:10.077Z,4.97
2018-07-10T02:54:44.943Z,4.67
2018-07-10T02:57:19.078Z,4.70
2018-07-10T02:59:53.704Z,5.03
2018-07-10T03:02:29.172Z,5.10
2018-07-10T03:05:05.660Z,5.27
2018-07-10T03:07:40.451Z,4.60
2018-07-10T03:10:15.103Z,4.90
2018-07-10T03:12:49.933Z,4.97
2018-07-10T03:15:24.278Z,5.17
2018-07-10T03:17:58.884Z,4.70
2018-07-10T03:20:35.037Z,4.87
2018-07-10T03:23:11.079Z,4.93
2018-07-10T03:25:45.451Z,5.17
2018-07-10T03:28:23.111Z,4.90
2018-07-10T03:30:57.460Z,4.73
2018-07-10T03:33:32.017Z,4.53
2018-07-10T03:36:06.281Z,4.77
2018-07-10T03:38:41.200Z,4.70
2018-07-10T03:41:15.616Z,4.63
2018-07-10T03:43:50.298Z,4.67
2018-07-10T03:46:25.019Z,4.80
2018-07-10T03:48:59.453Z,4.70
2018-07-10T03:51:34.186Z,5.00
2018-07-10T03:54:08.499Z,4.93
2018-07-10T03:56:42.832Z,4.90
2018-07-10T03:59:17.212Z,5.07
2018-07-10T04:01:52.240Z,4.70
2018-07-10T04:04:26.990Z,4.70
2018-07-10T04:07:03.010Z,5.13
2018-07-10T04:09:37.897Z,5.00
2018-07-10T04:12:12.173Z,4.87
2018-07-10T04:14:46.654Z,5.10
2018-07-10T04:17:25.290Z,4.50
2018-07-10T04:19:59.858Z,5.13
2018-07-10T04:22:34.102Z,4.37
2018-07-10T04:25:08.406Z,5.20
2018-07-10T04:29:59.018Z,5.07
2018-07-10T04:32:35.077Z,5.00
2018-07-10T04:35:11.525Z,4.60
2018-07-10T04:37:49.242Z,4.67
2018-07-10T04:40:25.401Z,5.03
2018-07-10T04:43:00.693Z,4.73
2018-07-10T04:45:43.432Z,4.60
2018-07-10T04:48:26.082Z,5.37
2018-07-10T04:51:15.849Z,5.37
2018-07-10T04:53:52.365Z,4.97
2018-07-10T04:56:27.227Z,4.77
2018-07-10T04:59:01.998Z,5.33
2018-07-10T05:01:37.022Z,5.40
2018-07-10T05:04:11.085Z,5.33
2018-07-10T05:06:45.839Z,5.27
2018-07-10T05:09:20.597Z,5.03
2018-07-10T05:11:54.827Z,5.40
2018-07-10T05:14:28.968Z,5.03
2018-07-10T05:17:03.774Z,5.47
2018-07-10T05:19:38.721Z,5.13
2018-07-10T05:22:13.437Z,5.50
2018-07-10T05:24:47.828Z,5.60
2018-07-10T05:27:22.963Z,5.23
2018-07-10T05:29:57.726Z,5.20
2018-07-10T05:32:32.917Z,5.17
2018-07-10T05:35:07.354Z,5.33
2018-07-10T05:37:41.774Z,4.80
2018-07-10T05:40:16.007Z,5.27
2018-07-10T05:42:50.369Z,4.97
2018-07-10T05:45:25.950Z,4.90
2018-07-10T05:48:01.262Z,5.33
2018-07-10T05:50:37.499Z,4.53
2018-07-10T05:53:12.273Z,4.57
2018-07-10T05:55:48.209Z,4.30
2018-07-10T05:58:23.390Z,4.60
2018-07-10T06:00:58.026Z,4.73
2018-07-10T06:03:32.225Z,4.47
2018-07-10T06:06:06.666Z,5.10
2018-07-10T06:08:41.721Z,4.53
2018-07-10T06:11:16.115Z,4.43
2018-07-10T06:13:50.670Z,4.50
2018-07-10T06:16:25.442Z,5.03
2018-07-10T06:18:59.805Z,5.20
2018-07-10T06:21:37.606Z,4.80
2018-07-10T06:24:15.986Z,4.90
2018-07-10T06:26:59.115Z,5.30
2018-07-10T06:29:44.975Z,4.77
2018-07-10T06:32:21.296Z,4.90
2018-07-10T06:35:00.295Z,4.47
2018-07-10T06:37:36.599Z,4.83
2018-07-10T06:40:10.980Z,4.43
2018-07-10T06:42:52.935Z,4.43
2018-07-10T06:45:27.216Z,4.27
2018-07-10T06:48:02.939Z,4.43
2018-07-10T06:50:37.331Z,4.73
2018-07-10T06:53:11.886Z,4.80
2018-07-10T06:55:53.601Z,4.20
2018-07-10T06:58:32.361Z,4.43
2018-07-10T07:01:06.897Z,4.80
2018-07-10T07:03:41.277Z,4.30
2018-07-10T07:06:15.734Z,4.50
2018-07-10T07:08:49.745Z,4.87
2018-07-10T07:11:25.306Z,4.70
2018-07-10T07:13:59.602Z,4.60
2018-07-10T07:16:34.411Z,5.00
2018-07-10T07:19:08.780Z,4.80
2018-07-10T07:21:43.334Z,4.60
2018-07-10T07:24:17.566Z,4.60
2018-07-10T07:26:52.090Z,4.73
2018-07-10T07:29:26.530Z,4.30
2018-07-10T07:32:01.015Z,4.47
2018-07-10T07:34:35.446Z,4.80
2018-07-10T07:37:10.050Z,5.13
2018-07-10T07:39:45.130Z,4.97
2018-07-10T07:42:19.467Z,5.77
2018-07-10T07:44:53.946Z,5.30
2018-07-10T07:47:29.650Z,5.33
2018-07-10T07:50:03.795Z,6.03
2018-07-10T07:52:38.415Z,5.50
2018-07-10T07:55:13.002Z,5.37
2018-07-10T07:57:47.470Z,6.13
2018-07-10T08:00:21.894Z,6.73
2018-07-10T08:02:56.321Z,6.67
2018-07-10T08:05:30.634Z,8.37
2018-07-10T08:08:04.928Z,7.77
2018-07-10T08:10:39.536Z,7.57
2018-07-10T08:13:14.015Z,8.03
2018-07-10T08:15:48.318Z,7.30
2018-07-10T08:18:22.779Z,6.87
2018-07-10T08:20:57.268Z,6.80
2018-07-10T08:23:32.059Z,7.20
2018-07-10T08:26:06.370Z,7.87
2018-07-10T08:28:40.603Z,7.90
2018-07-10T08:31:15.055Z,7.20
2018-07-10T08:33:49.495Z,8.13
2018-07-10T08:36:23.738Z,8.27
2018-07-10T08:38:58.074Z,9.27
2018-07-10T08:41:41.078Z,8.73
2018-07-10T08:44:16.021Z,8.23
2018-07-10T08:46:55.166Z,7.53
2018-07-10T08:49:33.257Z,8.40
2018-07-10T08:52:09.455Z,7.70
2018-07-10T08:54:43.632Z,7.80
2018-07-10T08:57:18.144Z,7.53
2018-07-10T08:59:53.246Z,7.73
2018-07-10T09:02:27.543Z,7.50
2018-07-10T09:05:02.514Z,7.10
2018-07-10T09:07:37.142Z,7.17
2018-07-10T09:10:11.528Z,7.93
2018-07-10T09:12:45.823Z,7.87
2018-07-10T09:15:20.211Z,7.47
2018-07-10T09:17:54.565Z,7.70
2018-07-10T09:20:34.045Z,8.83
2018-07-10T09:23:08.467Z,8.57
2018-07-10T09:25:43.119Z,8.20
2018-07-10T09:28:17.614Z,9.30
2018-07-10T09:30:51.985Z,9.13
2018-07-10T09:33:26.542Z,9.17
2018-07-10T09:36:01.663Z,9.73
2018-07-10T09:38:36.538Z,8.53
2018-07-10T09:41:10.991Z,8.10
2018-07-10T09:43:46.798Z,9.73
2018-07-10T09:46:21.089Z,10.83
2018-07-10T09:48:55.859Z,9.83
2018-07-10T09:51:30.337Z,9.50
2018-07-10T09:54:04.642Z,9.00
2018-07-10T09:56:39.850Z,10.30
2018-07-10T09:59:14.510Z,11.10
2018-07-10T10:01:49.834Z,10.30
2018-07-10T10:04:24.402Z,9.20
2018-07-10T10:06:58.889Z,10.10
2018-07-10T10:09:33.209Z,9.40
2018-07-10T10:12:08.713Z,7.87
2018-07-10T10:14:43.449Z,11.63
2018-07-10T10:17:18.048Z,11.10
2018-07-10T10:19:53.577Z,11.53
2018-07-10T10:22:29.491Z,11.97
2018-07-10T10:25:04.726Z,12.67
2018-07-10T10:27:40.821Z,12.90
2018-07-10T10:30:15.159Z,13.33
2018-07-10T10:32:49.657Z,14.20
2018-07-10T10:35:24.351Z,14.63
2018-07-10T10:37:59.791Z,14.13
2018-07-10T10:40:38.422Z,14.07
2018-07-10T10:43:12.922Z,13.03
2018-07-10T10:45:47.998Z,13.30
2018-07-10T10:48:26.842Z,12.80
2018-07-10T10:51:01.440Z,13.00
2018-07-10T10:53:36.194Z,13.93
2018-07-10T10:56:10.873Z,12.93
2018-07-10T10:58:45.280Z,12.53
2018-07-10T11:01:19.722Z,13.07
2018-07-10T11:03:54.142Z,12.10
2018-07-10T11:06:29.547Z,12.37
2018-07-10T11:09:05.372Z,11.67
2018-07-10T11:11:40.051Z,12.53
2018-07-10T11:14:14.316Z,11.50
2018-07-10T11:16:48.815Z,11.07
2018-07-10T11:19:29.658Z,11.60
2018-07-10T11:22:13.894Z,10.90
2018-07-10T11:24:58.895Z,11.40
2018-07-10T11:28:15.689Z,11.07
2018-07-10T11:30:50.958Z,10.47
2018-07-10T11:33:25.691Z,10.53
2018-07-10T11:36:00.612Z,10.93
2018-07-10T11:38:35.849Z,10.23
2018-07-10T11:41:10.313Z,10.87
2018-07-10T11:43:44.966Z,13.37
2018-07-10T11:46:19.813Z,14.67
2018-07-10T11:48:54.118Z,13.80
2018-07-10T11:51:29.180Z,14.27
2018-07-10T11:54:04.290Z,14.10
2018-07-10T11:56:38.939Z,14.00
2018-07-10T11:59:14.646Z,14.13
2018-07-10T12:01:50.103Z,14.60
2018-07-10T12:04:25.740Z,14.00
2018-07-10T12:07:00.970Z,13.30
2018-07-10T12:10:41.483Z,13.90
2018-07-10T12:13:16.615Z,14.10
2018-07-10T12:15:52.324Z,12.07
2018-07-10T12:18:27.763Z,12.53
2018-07-10T12:21:02.514Z,11.10
2018-07-10T12:23:37.155Z,11.30
2018-07-10T12:26:12.439Z,11.73
2018-07-10T12:28:47.416Z,10.70
2018-07-10T12:31:24.596Z,10.43
2018-07-10T12:33:59.538Z,10.83
2018-07-10T12:36:35.173Z,10.30
2018-07-10T12:39:10.157Z,9.37
2018-07-10T12:41:45.238Z,9.47
2018-07-10T12:44:20.034Z,9.30
2018-07-10T12:46:54.625Z,9.40
2018-07-10T12:49:29.056Z,9.00
2018-07-10T12:52:03.297Z,7.67
2018-07-10T12:54:38.254Z,7.47
2018-07-10T12:57:13.010Z,9.33
2018-07-10T12:59:47.923Z,9.20
2018-07-10T13:02:22.830Z,9.20
2018-07-10T13:04:57.178Z,9.47
2018-07-10T13:07:32.078Z,9.63
2018-07-10T13:10:06.725Z,8.57
2018-07-10T13:12:41.016Z,8.73
2018-07-10T13:15:15.326Z,8.87
2018-07-10T13:17:50.914Z,9.10
2018-07-10T13:20:25.551Z,8.77
2018-07-10T13:22:59.913Z,8.80
2018-07-10T13:25:34.257Z,8.43
2018-07-10T13:28:08.518Z,8.27
2018-07-10T13:30:42.961Z,8.40
2018-07-10T13:33:17.315Z,8.13
2018-07-10T13:35:51.706Z,8.20
2018-07-10T13:38:25.866Z,7.30
2018-07-10T13:41:01.603Z,8.20
2018-07-10T13:43:36.028Z,7.83
2018-07-10T13:46:11.048Z,7.47
2018-07-10T13:48:45.397Z,7.53
2018-07-10T13:51:19.768Z,7.30
2018-07-10T13:53:54.311Z,7.37
2018-07-10T13:56:28.918Z,7.27
2018-07-10T13:59:03.562Z,7.47
2018-07-10T14:01:38.678Z,7.50
2018-07-10T14:04:13.014Z,7.70
2018-07-10T14:06:47.709Z,7.57
2018-07-10T14:09:22.448Z,7.90
2018-07-10T14:11:56.964Z,7.13
2018-07-10T14:14:31.777Z,7.50
2018-07-10T14:17:06.261Z,7.77
2018-07-10T14:19:40.414Z,7.80
2018-07-10T14:22:14.761Z,6.30
2018-07-10T14:24:48.918Z,9.77
2018-07-10T14:27:23.358Z,7.40
2018-07-10T14:29:58.249Z,6.80
2018-07-10T14:32:32.474Z,6.30
2018-07-10T14:35:08.002Z,5.93
2018-07-10T14:37:43.149Z,6.50
2018-07-10T14:40:17.406Z,7.10
2018-07-10T14:42:51.802Z,5.90
2018-07-10T14:45:26.300Z,5.47
2018-07-10T14:48:02.835Z,5.80
2018-07-10T14:50:37.450Z,5.60
2018-07-10T14:53:11.990Z,6.00
2018-07-10T14:55:46.537Z,6.17
2018-07-10T14:58:21.346Z,5.30
2018-07-10T15:00:56.068Z,5.90
2018-07-10T15:03:31.431Z,5.93
2018-07-10T15:06:05.580Z,5.40
2018-07-10T15:08:39.805Z,5.10
2018-07-10T15:11:13.953Z,6.53
2018-07-10T15:13:58.146Z,5.30
2018-07-10T15:16:38.589Z,5.43
2018-07-10T15:19:15.035Z,4.63
2018-07-10T15:21:49.278Z,4.70
2018-07-10T15:24:24.038Z,4.80
2018-07-10T15:26:59.117Z,4.40
2018-07-10T15:29:33.558Z,4.90
2018-07-10T15:32:08.319Z,4.80
2018-07-10T15:34:42.725Z,4.63
2018-07-10T15:37:16.914Z,4.73
2018-07-10T15:39:51.199Z,4.70
2018-07-10T15:42:25.373Z,4.30
2018-07-10T15:44:59.674Z,4.10
2018-07-10T15:47:36.082Z,4.10
2018-07-10T15:50:11.093Z,4.10
2018-07-10T15:52:49.579Z,4.00
2018-07-10T15:55:24.107Z,4.40
2018-07-10T15:57:59.102Z,4.07
2018-07-10T16:00:34.096Z,4.23
2018-07-10T16:03:08.934Z,3.97
2018-07-10T16:05:44.091Z,3.80
2018-07-10T16:08:19.817Z,3.40
2018-07-10T16:10:57.582Z,3.70
2018-07-10T16:13:41.137Z,3.67
2018-07-10T16:16:16.549Z,3.70
2018-07-10T16:18:57.890Z,3.80
2018-07-10T16:21:37.189Z,10.40
2018-07-10T16:24:11.758Z,3.57
2018-07-10T16:26:45.902Z,4.13
2018-07-10T16:29:21.165Z,3.53
2018-07-10T16:31:58.794Z,3.33
2018-07-10T16:34:33.594Z,3.40
2018-07-10T16:37:08.057Z,3.10
2018-07-10T16:39:42.424Z,3.43
2018-07-10T16:42:22.076Z,3.23
2018-07-10T16:44:57.721Z,3.40
2018-07-10T16:47:41.481Z,3.30
2018-07-10T16:50:15.915Z,3.47
2018-07-10T16:52:54.946Z,3.20
2018-07-10T16:55:29.872Z,2.97
2018-07-10T16:58:04.379Z,3.07
2018-07-10T17:00:38.750Z,3.00
2018-07-10T17:03:13.104Z,3.30
2018-07-10T17:05:47.650Z,3.53
2018-07-10T17:08:22.433Z,3.17
2018-07-10T17:10:57.197Z,2.70
2018-07-10T17:13:31.469Z,2.90
2018-07-10T17:16:05.718Z,2.80
2018-07-10T17:18:40.154Z,3.00
2018-07-10T17:21:14.518Z,3.00
2018-07-10T17:23:49.238Z,2.80
2018-07-10T17:26:23.465Z,2.80
2018-07-10T17:28:58.061Z,3.20
2018-07-10T17:31:32.562Z,3.10
2018-07-10T17:34:07.230Z,2.80
2018-07-10T17:36:41.673Z,3.23
2018-07-10T17:39:15.857Z,2.63
2018-07-10T17:41:51.069Z,2.80
2018-07-10T17:44:25.724Z,3.13
2018-07-10T17:47:00.769Z,2.90
2018-07-10T17:49:35.155Z,3.20
2018-07-10T17:52:09.628Z,3.00
2018-07-10T17:54:44.034Z,2.63
2018-07-10T17:57:18.594Z,2.90
2018-07-10T17:59:55.614Z,2.97
2018-07-10T18:02:29.916Z,3.13
2018-07-10T18:05:04.318Z,2.90
2018-07-10T18:07:39.070Z,3.00
2018-07-10T18:10:13.958Z,2.83
2018-07-10T18:12:48.762Z,3.03
2018-07-10T18:15:24.458Z,2.97
2018-07-10T18:17:59.245Z,3.20
2018-07-10T18:20:34.307Z,3.10
2018-07-10T18:23:09.329Z,2.80
2018-07-10T18:25:43.546Z,3.10
2018-07-10T18:28:18.300Z,3.33
2018-07-10T18:30:53.108Z,3.07
2018-07-10T18:33:27.863Z,3.40
2018-07-10T18:36:02.206Z,3.67
2018-07-10T18:38:36.562Z,3.07
2018-07-10T18:41:10.764Z,3.60
2018-07-10T18:43:45.929Z,3.47
2018-07-10T18:46:20.866Z,3.40
2018-07-10T18:48:55.401Z,3.40
2018-07-10T18:51:30.986Z,3.40
2018-07-10T18:54:05.486Z,3.87
2018-07-10T18:56:40.782Z,3.40
2018-07-10T18:59:19.068Z,3.33
2018-07-10T19:01:57.862Z,3.67
2018-07-10T19:04:43.906Z,3.50
2018-07-10T19:07:18.598Z,3.40
2018-07-10T19:09:53.050Z,3.40
2018-07-10T19:12:27.306Z,3.73
2018-07-10T19:15:02.325Z,3.43
2018-07-10T19:17:36.642Z,3.20
2018-07-10T19:20:13.143Z,3.87
2018-07-10T19:22:57.363Z,3.70
2018-07-10T19:25:33.263Z,4.10
2018-07-10T19:28:08.201Z,3.50
2018-07-10T19:31:19.680Z,3.87
2018-07-10T19:33:56.682Z,4.30
2018-07-10T19:36:31.231Z,3.77
2018-07-10T19:39:07.541Z,3.70
2018-07-10T19:41:42.266Z,4.00
2018-07-10T19:44:16.622Z,3.97
2018-07-10T19:46:51.807Z,3.70
2018-07-10T19:49:26.529Z,3.97
2018-07-10T19:52:02.035Z,3.90
2018-07-10T19:54:37.155Z,3.70
2018-07-10T19:57:11.666Z,3.90
2018-07-10T19:59:46.592Z,3.90
2018-07-10T20:02:21.385Z,3.70
2018-07-10T20:05:02.654Z,3.30
2018-07-10T20:07:42.294Z,3.77
2018-07-10T20:10:25.006Z,3.70
2018-07-10T20:13:09.169Z,3.80
2018-07-10T20:15:58.034Z,4.00
2018-07-10T20:20:44.078Z,3.50
2018-07-10T20:24:32.484Z,4.10
2018-07-10T20:29:23.296Z,3.87
2018-07-10T20:32:06.164Z,4.40
2018-07-10T20:34:49.493Z,4.20
2018-07-10T20:37:29.030Z,5.03
2018-07-10T20:40:04.560Z,4.23
2018-07-10T20:42:41.851Z,4.60
2018-07-10T20:45:16.402Z,4.57
2018-07-10T20:47:53.964Z,4.20
2018-07-10T20:50:38.303Z,4.47
2018-07-10T20:53:21.246Z,4.80
2018-07-10T20:57:07.381Z,4.77
2018-07-10T20:59:43.507Z,4.53
2018-07-10T21:02:31.579Z,4.47
2018-07-10T21:05:09.285Z,4.13
2018-07-10T21:09:01.154Z,3.97
2018-07-10T21:11:52.726Z,4.20
2018-07-10T21:14:38.468Z,4.80
2018-07-10T21:17:16.361Z,4.60
2018-07-10T21:20:06.000Z,4.40
2018-07-10T21:23:54.718Z,4.13
2018-07-10T21:26:42.120Z,4.23
2018-07-10T21:30:27.887Z,4.20
2018-07-10T21:33:22.086Z,4.60
2018-07-10T21:36:00.499Z,4.40
2018-07-10T21:40:58.053Z,4.60
2018-07-10T21:43:58.588Z,4.47
2018-07-10T21:46:46.951Z,4.07
2018-07-10T21:49:36.101Z,4.23
2018-07-10T21:52:11.674Z,4.90
2018-07-10T21:54:47.493Z,5.00
2018-07-10T21:57:27.879Z,4.63
2018-07-10T22:00:03.947Z,4.70
2018-07-10T22:02:39.490Z,4.33
2018-07-10T22:05:14.822Z,4.53
2018-07-10T22:07:50.078Z,4.40
2018-07-10T22:10:25.420Z,4.30
2018-07-10T22:13:00.208Z,4.70
2018-07-10T22:15:34.490Z,4.90
2018-07-10T22:18:09.733Z,5.00
2018-07-10T22:20:44.520Z,4.80
2018-07-10T22:23:20.053Z,4.33
2018-07-10T22:25:54.583Z,4.33
2018-07-10T22:28:29.928Z,4.30
2018-07-10T22:31:10.265Z,4.67
2018-07-10T22:33:45.384Z,4.60
2018-07-10T22:36:20.528Z,4.47
2018-07-10T22:38:55.786Z,4.70
2018-07-10T22:41:31.346Z,4.60
2018-07-10T22:44:06.562Z,4.57
2018-07-10T22:46:43.317Z,4.90
2018-07-10T22:49:18.608Z,4.40
2018-07-10T22:51:54.848Z,4.30
2018-07-10T22:54:30.878Z,4.20
2018-07-10T22:57:10.674Z,4.17
2018-07-10T22:59:47.334Z,4.00
2018-07-10T23:02:22.462Z,4.17
2018-07-10T23:04:58.207Z,4.87
2018-07-10T23:07:33.462Z,4.10
2018-07-10T23:10:08.992Z,4.30
2018-07-10T23:12:44.212Z,4.20
2018-07-10T23:15:19.675Z,4.47
2018-07-10T23:17:54.651Z,4.60
2018-07-10T23:20:29.634Z,4.57
2018-07-10T23:23:05.095Z,4.53
2018-07-10T23:25:39.877Z,4.40
2018-07-10T23:28:15.031Z,4.47
2018-07-10T23:30:51.244Z,4.30
2018-07-10T23:33:27.066Z,3.90
2018-07-10T23:36:03.201Z,4.23
2018-07-10T23:38:48.394Z,4.67
2018-07-10T23:41:30.392Z,4.50
2018-07-10T23:44:07.728Z,4.20
2018-07-10T23:46:47.702Z,4.37
2018-07-10T23:49:23.155Z,4.13
2018-07-10T23:52:09.170Z,4.17
2018-07-10T23:54:44.345Z,4.20
2018-07-10T23:57:19.205Z,4.50
2018-07-10T23:59:54.511Z,4.70
